sensor_id;sensor_type;location;lat;lon;timestamp;pressure;altitude;pressure_sealevel;temperature
16956;BMP180;8594;52.052;8.354;2023-05-28T00:00:55;101173.00;;;18.50
16956;BMP180;8594;52.052;8.354;2023-05-28T00:03:22;101164.00;;;18.20
16956;BMP180;8594;52.052;8.354;2023-05-28T00:05:49;101166.00;;;18.00
16956;BMP180;8594;52.052;8.354;2023-05-28T00:08:16;101166.00;;;18.20
16956;BMP180;8594;52.052;8.354;2023-05-28T00:10:43;101164.00;;;18.00
16956;BMP180;8594;52.052;8.354;2023-05-28T00:13:10;101164.00;;;17.70
16956;BMP180;8594;52.052;8.354;2023-05-28T00:15:37;101165.00;;;18.00
16956;BMP180;8594;52.052;8.354;2023-05-28T00:18:05;101168.00;;;17.80
16956;BMP180;8594;52.052;8.354;2023-05-28T00:20:34;101168.00;;;17.90
16956;BMP180;8594;52.052;8.354;2023-05-28T00:23:01;101168.00;;;17.90
16956;BMP180;8594;52.052;8.354;2023-05-28T00:25:28;101171.00;;;18.30
16956;BMP180;8594;52.052;8.354;2023-05-28T00:27:55;101167.00;;;18.60
16956;BMP180;8594;52.052;8.354;2023-05-28T00:30:22;101161.00;;;18.80
16956;BMP180;8594;52.052;8.354;2023-05-28T00:32:50;101157.00;;;19.10
16956;BMP180;8594;52.052;8.354;2023-05-28T00:35:18;101155.00;;;19.20
16956;BMP180;8594;52.052;8.354;2023-05-28T00:37:45;101152.00;;;19.20
16956;BMP180;8594;52.052;8.354;2023-05-28T00:40:12;101145.00;;;19.00
16956;BMP180;8594;52.052;8.354;2023-05-28T00:42:41;101145.00;;;19.00
16956;BMP180;8594;52.052;8.354;2023-05-28T00:45:09;101145.00;;;19.20
16956;BMP180;8594;52.052;8.354;2023-05-28T00:47:37;101149.00;;;19.10
16956;BMP180;8594;52.052;8.354;2023-05-28T00:50:06;101147.00;;;19.10
16956;BMP180;8594;52.052;8.354;2023-05-28T00:52:35;101143.00;;;18.90
16956;BMP180;8594;52.052;8.354;2023-05-28T00:55:07;101150.00;;;19.10
16956;BMP180;8594;52.052;8.354;2023-05-28T00:57:38;101145.00;;;19.50
16956;BMP180;8594;52.052;8.354;2023-05-28T01:00:06;101147.00;;;19.50
16956;BMP180;8594;52.052;8.354;2023-05-28T01:02:34;101145.00;;;19.30
16956;BMP180;8594;52.052;8.354;2023-05-28T01:05:01;101142.00;;;19.00
16956;BMP180;8594;52.052;8.354;2023-05-28T01:07:28;101145.00;;;18.70
16956;BMP180;8594;52.052;8.354;2023-05-28T01:09:57;101145.00;;;18.90
16956;BMP180;8594;52.052;8.354;2023-05-28T01:12:25;101146.00;;;19.30
16956;BMP180;8594;52.052;8.354;2023-05-28T01:14:53;101148.00;;;19.30
16956;BMP180;8594;52.052;8.354;2023-05-28T01:17:20;101140.00;;;19.30
16956;BMP180;8594;52.052;8.354;2023-05-28T01:19:47;101140.00;;;19.30
16956;BMP180;8594;52.052;8.354;2023-05-28T01:22:18;101150.00;;;19.30
16956;BMP180;8594;52.052;8.354;2023-05-28T01:24:49;101141.00;;;19.50
16956;BMP180;8594;52.052;8.354;2023-05-28T01:27:17;101132.00;;;19.30
16956;BMP180;8594;52.052;8.354;2023-05-28T01:29:45;101135.00;;;19.20
16956;BMP180;8594;52.052;8.354;2023-05-28T01:32:11;101129.00;;;19.10
16956;BMP180;8594;52.052;8.354;2023-05-28T01:34:38;101124.00;;;19.20
16956;BMP180;8594;52.052;8.354;2023-05-28T01:37:09;101126.00;;;19.00
16956;BMP180;8594;52.052;8.354;2023-05-28T01:39:42;101125.00;;;19.20
16956;BMP180;8594;52.052;8.354;2023-05-28T01:42:12;101126.00;;;19.00
16956;BMP180;8594;52.052;8.354;2023-05-28T01:44:41;101125.00;;;19.00
16956;BMP180;8594;52.052;8.354;2023-05-28T01:47:11;101128.00;;;18.90
16956;BMP180;8594;52.052;8.354;2023-05-28T01:49:39;101122.00;;;18.90
16956;BMP180;8594;52.052;8.354;2023-05-28T01:52:06;101128.00;;;18.90
16956;BMP180;8594;52.052;8.354;2023-05-28T01:54:34;101125.00;;;19.00
16956;BMP180;8594;52.052;8.354;2023-05-28T01:57:01;101128.00;;;18.80
16956;BMP180;8594;52.052;8.354;2023-05-28T01:59:29;101122.00;;;18.80
16956;BMP180;8594;52.052;8.354;2023-05-28T02:01:56;101122.00;;;18.80
16956;BMP180;8594;52.052;8.354;2023-05-28T02:04:24;101114.00;;;18.70
16956;BMP180;8594;52.052;8.354;2023-05-28T02:06:51;101118.00;;;18.60
16956;BMP180;8594;52.052;8.354;2023-05-28T02:09:18;101112.00;;;18.60
16956;BMP180;8594;52.052;8.354;2023-05-28T02:11:45;101123.00;;;18.50
16956;BMP180;8594;52.052;8.354;2023-05-28T02:14:11;101122.00;;;18.50
16956;BMP180;8594;52.052;8.354;2023-05-28T02:16:41;101124.00;;;18.50
16956;BMP180;8594;52.052;8.354;2023-05-28T02:19:10;101120.00;;;18.00
16956;BMP180;8594;52.052;8.354;2023-05-28T02:21:36;101126.00;;;18.20
16956;BMP180;8594;52.052;8.354;2023-05-28T02:24:04;101124.00;;;18.10
16956;BMP180;8594;52.052;8.354;2023-05-28T02:26:31;101125.00;;;18.20
16956;BMP180;8594;52.052;8.354;2023-05-28T02:28:58;101118.00;;;18.20
16956;BMP180;8594;52.052;8.354;2023-05-28T02:31:25;101127.00;;;18.30
16956;BMP180;8594;52.052;8.354;2023-05-28T02:33:53;101119.00;;;18.10
16956;BMP180;8594;52.052;8.354;2023-05-28T02:36:20;101115.00;;;18.10
16956;BMP180;8594;52.052;8.354;2023-05-28T02:38:48;101128.00;;;18.10
16956;BMP180;8594;52.052;8.354;2023-05-28T02:41:15;101120.00;;;18.00
16956;BMP180;8594;52.052;8.354;2023-05-28T02:43:43;101114.00;;;18.00
16956;BMP180;8594;52.052;8.354;2023-05-28T02:46:10;101115.00;;;17.90
16956;BMP180;8594;52.052;8.354;2023-05-28T02:48:37;101116.00;;;17.90
16956;BMP180;8594;52.052;8.354;2023-05-28T02:51:05;101109.00;;;17.90
16956;BMP180;8594;52.052;8.354;2023-05-28T02:53:32;101115.00;;;17.80
16956;BMP180;8594;52.052;8.354;2023-05-28T02:55:59;101111.00;;;17.70
16956;BMP180;8594;52.052;8.354;2023-05-28T02:58:26;101118.00;;;17.60
16956;BMP180;8594;52.052;8.354;2023-05-28T03:00:54;101119.00;;;17.80
16956;BMP180;8594;52.052;8.354;2023-05-28T03:03:20;101118.00;;;17.50
16956;BMP180;8594;52.052;8.354;2023-05-28T03:05:48;101117.00;;;17.60
16956;BMP180;8594;52.052;8.354;2023-05-28T03:08:17;101115.00;;;17.80
16956;BMP180;8594;52.052;8.354;2023-05-28T03:10:44;101118.00;;;17.80
16956;BMP180;8594;52.052;8.354;2023-05-28T03:13:11;101126.00;;;17.80
16956;BMP180;8594;52.052;8.354;2023-05-28T03:15:38;101126.00;;;17.80
16956;BMP180;8594;52.052;8.354;2023-05-28T03:18:04;101127.00;;;17.80
16956;BMP180;8594;52.052;8.354;2023-05-28T03:20:31;101128.00;;;17.80
16956;BMP180;8594;52.052;8.354;2023-05-28T03:22:58;101132.00;;;17.70
16956;BMP180;8594;52.052;8.354;2023-05-28T03:25:27;101120.00;;;17.60
16956;BMP180;8594;52.052;8.354;2023-05-28T03:27:54;101109.00;;;17.70
16956;BMP180;8594;52.052;8.354;2023-05-28T03:30:21;101102.00;;;17.60
16956;BMP180;8594;52.052;8.354;2023-05-28T03:32:48;101105.00;;;17.90
16956;BMP180;8594;52.052;8.354;2023-05-28T03:35:15;101111.00;;;17.80
16956;BMP180;8594;52.052;8.354;2023-05-28T03:37:42;101108.00;;;17.70
16956;BMP180;8594;52.052;8.354;2023-05-28T03:40:09;101103.00;;;17.40
16956;BMP180;8594;52.052;8.354;2023-05-28T03:42:38;101102.00;;;17.70
16956;BMP180;8594;52.052;8.354;2023-05-28T03:45:06;101108.00;;;17.90
16956;BMP180;8594;52.052;8.354;2023-05-28T03:47:34;101110.00;;;17.70
16956;BMP180;8594;52.052;8.354;2023-05-28T03:50:02;101114.00;;;17.80
16956;BMP180;8594;52.052;8.354;2023-05-28T03:52:30;101104.00;;;18.10
16956;BMP180;8594;52.052;8.354;2023-05-28T03:54:57;101107.00;;;18.20
16956;BMP180;8594;52.052;8.354;2023-05-28T03:57:24;101102.00;;;18.30
16956;BMP180;8594;52.052;8.354;2023-05-28T03:59:52;101103.00;;;18.40
16956;BMP180;8594;52.052;8.354;2023-05-28T04:02:21;101106.00;;;18.50
16956;BMP180;8594;52.052;8.354;2023-05-28T04:04:48;101101.00;;;18.70
16956;BMP180;8594;52.052;8.354;2023-05-28T04:07:15;101106.00;;;18.90
16956;BMP180;8594;52.052;8.354;2023-05-28T04:09:42;101113.00;;;18.80
16956;BMP180;8594;52.052;8.354;2023-05-28T04:12:09;101108.00;;;18.60
16956;BMP180;8594;52.052;8.354;2023-05-28T04:14:38;101104.00;;;18.50
16956;BMP180;8594;52.052;8.354;2023-05-28T04:17:07;101106.00;;;18.90
16956;BMP180;8594;52.052;8.354;2023-05-28T04:19:36;101109.00;;;18.90
16956;BMP180;8594;52.052;8.354;2023-05-28T04:22:03;101105.00;;;19.30
16956;BMP180;8594;52.052;8.354;2023-05-28T04:24:30;101101.00;;;19.00
16956;BMP180;8594;52.052;8.354;2023-05-28T04:26:57;101096.00;;;19.10
16956;BMP180;8594;52.052;8.354;2023-05-28T04:29:25;101109.00;;;19.00
16956;BMP180;8594;52.052;8.354;2023-05-28T04:31:55;101110.00;;;19.20
16956;BMP180;8594;52.052;8.354;2023-05-28T04:34:24;101105.00;;;19.20
16956;BMP180;8594;52.052;8.354;2023-05-28T04:36:51;101113.00;;;19.30
16956;BMP180;8594;52.052;8.354;2023-05-28T04:39:19;101111.00;;;19.20
16956;BMP180;8594;52.052;8.354;2023-05-28T04:41:48;101114.00;;;19.30
16956;BMP180;8594;52.052;8.354;2023-05-28T04:44:15;101115.00;;;19.30
16956;BMP180;8594;52.052;8.354;2023-05-28T04:46:42;101118.00;;;19.60
16956;BMP180;8594;52.052;8.354;2023-05-28T04:49:11;101111.00;;;19.30
16956;BMP180;8594;52.052;8.354;2023-05-28T04:51:40;101107.00;;;18.80
16956;BMP180;8594;52.052;8.354;2023-05-28T04:54:07;101114.00;;;19.60
16956;BMP180;8594;52.052;8.354;2023-05-28T04:56:34;101109.00;;;19.50
16956;BMP180;8594;52.052;8.354;2023-05-28T04:59:01;101112.00;;;19.90
16956;BMP180;8594;52.052;8.354;2023-05-28T05:01:30;101109.00;;;20.00
16956;BMP180;8594;52.052;8.354;2023-05-28T05:03:58;101114.00;;;20.40
16956;BMP180;8594;52.052;8.354;2023-05-28T05:06:24;101114.00;;;20.50
16956;BMP180;8594;52.052;8.354;2023-05-28T05:08:53;101118.00;;;20.20
16956;BMP180;8594;52.052;8.354;2023-05-28T05:11:20;101116.00;;;20.80
16956;BMP180;8594;52.052;8.354;2023-05-28T05:13:47;101125.00;;;20.90
16956;BMP180;8594;52.052;8.354;2023-05-28T05:16:13;101125.00;;;21.30
16956;BMP180;8594;52.052;8.354;2023-05-28T05:18:40;101132.00;;;22.00
16956;BMP180;8594;52.052;8.354;2023-05-28T05:21:07;101131.00;;;22.00
16956;BMP180;8594;52.052;8.354;2023-05-28T05:23:35;101135.00;;;22.30
16956;BMP180;8594;52.052;8.354;2023-05-28T05:26:03;101136.00;;;22.40
16956;BMP180;8594;52.052;8.354;2023-05-28T05:28:30;101136.00;;;22.00
16956;BMP180;8594;52.052;8.354;2023-05-28T05:30:57;101129.00;;;22.40
16956;BMP180;8594;52.052;8.354;2023-05-28T05:33:24;101127.00;;;22.30
16956;BMP180;8594;52.052;8.354;2023-05-28T05:35:50;101133.00;;;22.30
16956;BMP180;8594;52.052;8.354;2023-05-28T05:38:17;101129.00;;;22.70
16956;BMP180;8594;52.052;8.354;2023-05-28T05:40:44;101129.00;;;23.00
16956;BMP180;8594;52.052;8.354;2023-05-28T05:43:13;101135.00;;;22.70
16956;BMP180;8594;52.052;8.354;2023-05-28T05:45:39;101126.00;;;23.30
16956;BMP180;8594;52.052;8.354;2023-05-28T05:48:06;101120.00;;;23.50
16956;BMP180;8594;52.052;8.354;2023-05-28T05:50:46;101122.00;;;24.00
16956;BMP180;8594;52.052;8.354;2023-05-28T05:53:13;101126.00;;;24.00
16956;BMP180;8594;52.052;8.354;2023-05-28T05:55:40;101134.00;;;24.30
16956;BMP180;8594;52.052;8.354;2023-05-28T05:58:07;101131.00;;;24.90
16956;BMP180;8594;52.052;8.354;2023-05-28T06:00:35;101135.00;;;25.00
16956;BMP180;8594;52.052;8.354;2023-05-28T06:03:02;101144.00;;;24.80
16956;BMP180;8594;52.052;8.354;2023-05-28T06:05:29;101154.00;;;25.20
16956;BMP180;8594;52.052;8.354;2023-05-28T06:07:56;101153.00;;;25.10
16956;BMP180;8594;52.052;8.354;2023-05-28T06:10:23;101154.00;;;25.40
16956;BMP180;8594;52.052;8.354;2023-05-28T06:12:50;101150.00;;;25.70
16956;BMP180;8594;52.052;8.354;2023-05-28T06:15:17;101145.00;;;24.90
16956;BMP180;8594;52.052;8.354;2023-05-28T06:17:45;101145.00;;;25.20
16956;BMP180;8594;52.052;8.354;2023-05-28T06:20:12;101144.00;;;25.10
16956;BMP180;8594;52.052;8.354;2023-05-28T06:22:40;101144.00;;;25.20
16956;BMP180;8594;52.052;8.354;2023-05-28T06:25:07;101140.00;;;25.20
16956;BMP180;8594;52.052;8.354;2023-05-28T06:27:34;101136.00;;;25.30
16956;BMP180;8594;52.052;8.354;2023-05-28T06:30:02;101136.00;;;24.90
16956;BMP180;8594;52.052;8.354;2023-05-28T06:32:30;101140.00;;;25.20
16956;BMP180;8594;52.052;8.354;2023-05-28T06:34:58;101145.00;;;24.70
16956;BMP180;8594;52.052;8.354;2023-05-28T06:37:25;101138.00;;;24.90
16956;BMP180;8594;52.052;8.354;2023-05-28T06:39:52;101136.00;;;24.90
16956;BMP180;8594;52.052;8.354;2023-05-28T06:42:19;101137.00;;;25.20
16956;BMP180;8594;52.052;8.354;2023-05-28T06:44:46;101139.00;;;25.40
16956;BMP180;8594;52.052;8.354;2023-05-28T06:47:12;101141.00;;;25.30
16956;BMP180;8594;52.052;8.354;2023-05-28T06:49:39;101134.00;;;25.40
16956;BMP180;8594;52.052;8.354;2023-05-28T06:52:07;101140.00;;;25.20
16956;BMP180;8594;52.052;8.354;2023-05-28T06:54:34;101142.00;;;25.50
16956;BMP180;8594;52.052;8.354;2023-05-28T06:57:01;101140.00;;;25.40
16956;BMP180;8594;52.052;8.354;2023-05-28T06:59:28;101146.00;;;25.80
16956;BMP180;8594;52.052;8.354;2023-05-28T07:01:55;101153.00;;;25.70
16956;BMP180;8594;52.052;8.354;2023-05-28T07:04:22;101151.00;;;25.40
16956;BMP180;8594;52.052;8.354;2023-05-28T07:06:49;101156.00;;;25.40
16956;BMP180;8594;52.052;8.354;2023-05-28T07:09:17;101160.00;;;25.00
16956;BMP180;8594;52.052;8.354;2023-05-28T07:11:43;101152.00;;;25.20
16956;BMP180;8594;52.052;8.354;2023-05-28T07:14:11;101155.00;;;24.90
16956;BMP180;8594;52.052;8.354;2023-05-28T07:16:37;101164.00;;;24.70
16956;BMP180;8594;52.052;8.354;2023-05-28T07:19:04;101166.00;;;24.90
16956;BMP180;8594;52.052;8.354;2023-05-28T07:21:31;101175.00;;;25.20
16956;BMP180;8594;52.052;8.354;2023-05-28T07:23:58;101177.00;;;25.10
16956;BMP180;8594;52.052;8.354;2023-05-28T07:26:26;101168.00;;;24.80
16956;BMP180;8594;52.052;8.354;2023-05-28T07:28:53;101177.00;;;24.60
16956;BMP180;8594;52.052;8.354;2023-05-28T07:31:20;101181.00;;;24.80
16956;BMP180;8594;52.052;8.354;2023-05-28T07:33:49;101180.00;;;24.60
16956;BMP180;8594;52.052;8.354;2023-05-28T07:36:16;101182.00;;;24.80
16956;BMP180;8594;52.052;8.354;2023-05-28T07:38:43;101185.00;;;25.30
16956;BMP180;8594;52.052;8.354;2023-05-28T07:41:10;101179.00;;;25.10
16956;BMP180;8594;52.052;8.354;2023-05-28T07:43:38;101177.00;;;25.30
16956;BMP180;8594;52.052;8.354;2023-05-28T07:46:05;101167.00;;;24.60
16956;BMP180;8594;52.052;8.354;2023-05-28T07:48:32;101187.00;;;24.40
16956;BMP180;8594;52.052;8.354;2023-05-28T07:50:59;101167.00;;;24.60
16956;BMP180;8594;52.052;8.354;2023-05-28T07:53:25;101174.00;;;24.40
16956;BMP180;8594;52.052;8.354;2023-05-28T07:55:52;101166.00;;;24.50
16956;BMP180;8594;52.052;8.354;2023-05-28T07:58:21;101176.00;;;24.40
16956;BMP180;8594;52.052;8.354;2023-05-28T08:00:49;101171.00;;;24.60
16956;BMP180;8594;52.052;8.354;2023-05-28T08:03:16;101166.00;;;24.90
16956;BMP180;8594;52.052;8.354;2023-05-28T08:05:42;101169.00;;;25.30
16956;BMP180;8594;52.052;8.354;2023-05-28T08:08:09;101167.00;;;25.20
16956;BMP180;8594;52.052;8.354;2023-05-28T08:10:36;101167.00;;;24.90
16956;BMP180;8594;52.052;8.354;2023-05-28T08:13:03;101167.00;;;24.40
16956;BMP180;8594;52.052;8.354;2023-05-28T08:15:30;101160.00;;;24.90
16956;BMP180;8594;52.052;8.354;2023-05-28T08:17:58;101168.00;;;25.10
16956;BMP180;8594;52.052;8.354;2023-05-28T08:20:25;101162.00;;;25.40
16956;BMP180;8594;52.052;8.354;2023-05-28T08:22:52;101169.00;;;25.90
16956;BMP180;8594;52.052;8.354;2023-05-28T08:25:19;101164.00;;;25.70
16956;BMP180;8594;52.052;8.354;2023-05-28T08:27:45;101164.00;;;26.20
16956;BMP180;8594;52.052;8.354;2023-05-28T08:30:13;101164.00;;;26.10
16956;BMP180;8594;52.052;8.354;2023-05-28T08:32:40;101161.00;;;26.80
16956;BMP180;8594;52.052;8.354;2023-05-28T08:35:08;101158.00;;;26.70
16956;BMP180;8594;52.052;8.354;2023-05-28T08:37:36;101156.00;;;26.90
16956;BMP180;8594;52.052;8.354;2023-05-28T08:40:04;101163.00;;;27.10
16956;BMP180;8594;52.052;8.354;2023-05-28T08:42:34;101153.00;;;26.60
16956;BMP180;8594;52.052;8.354;2023-05-28T08:45:02;101154.00;;;26.20
16956;BMP180;8594;52.052;8.354;2023-05-28T08:47:32;101161.00;;;25.70
16956;BMP180;8594;52.052;8.354;2023-05-28T08:50:04;101164.00;;;25.50
16956;BMP180;8594;52.052;8.354;2023-05-28T08:52:34;101164.00;;;25.60
16956;BMP180;8594;52.052;8.354;2023-05-28T08:55:01;101163.00;;;25.60
16956;BMP180;8594;52.052;8.354;2023-05-28T08:57:30;101158.00;;;25.30
16956;BMP180;8594;52.052;8.354;2023-05-28T08:59:59;101149.00;;;25.60
16956;BMP180;8594;52.052;8.354;2023-05-28T09:02:26;101151.00;;;26.40
16956;BMP180;8594;52.052;8.354;2023-05-28T09:04:53;101154.00;;;25.80
16956;BMP180;8594;52.052;8.354;2023-05-28T09:07:22;101152.00;;;25.90
16956;BMP180;8594;52.052;8.354;2023-05-28T09:09:50;101157.00;;;25.60
16956;BMP180;8594;52.052;8.354;2023-05-28T09:12:21;101161.00;;;26.10
16956;BMP180;8594;52.052;8.354;2023-05-28T09:14:51;101155.00;;;26.10
16956;BMP180;8594;52.052;8.354;2023-05-28T09:17:32;101159.00;;;26.20
16956;BMP180;8594;52.052;8.354;2023-05-28T09:20:00;101157.00;;;26.20
16956;BMP180;8594;52.052;8.354;2023-05-28T09:22:27;101151.00;;;27.00
16956;BMP180;8594;52.052;8.354;2023-05-28T09:24:55;101154.00;;;27.10
16956;BMP180;8594;52.052;8.354;2023-05-28T09:27:22;101149.00;;;27.00
16956;BMP180;8594;52.052;8.354;2023-05-28T09:29:49;101143.00;;;26.20
16956;BMP180;8594;52.052;8.354;2023-05-28T09:32:18;101141.00;;;26.90
16956;BMP180;8594;52.052;8.354;2023-05-28T09:34:48;101140.00;;;26.50
16956;BMP180;8594;52.052;8.354;2023-05-28T09:37:17;101140.00;;;26.20
16956;BMP180;8594;52.052;8.354;2023-05-28T09:39:44;101143.00;;;26.60
16956;BMP180;8594;52.052;8.354;2023-05-28T09:42:12;101138.00;;;26.20
16956;BMP180;8594;52.052;8.354;2023-05-28T09:44:41;101145.00;;;26.30
16956;BMP180;8594;52.052;8.354;2023-05-28T09:47:16;101148.00;;;26.30
16956;BMP180;8594;52.052;8.354;2023-05-28T09:49:44;101140.00;;;26.00
16956;BMP180;8594;52.052;8.354;2023-05-28T09:52:17;101139.00;;;26.70
16956;BMP180;8594;52.052;8.354;2023-05-28T09:54:49;101135.00;;;27.40
16956;BMP180;8594;52.052;8.354;2023-05-28T09:57:24;101138.00;;;26.70
16956;BMP180;8594;52.052;8.354;2023-05-28T09:59:54;101129.00;;;26.50
16956;BMP180;8594;52.052;8.354;2023-05-28T10:02:32;101135.00;;;26.60
16956;BMP180;8594;52.052;8.354;2023-05-28T10:05:06;101139.00;;;26.40
16956;BMP180;8594;52.052;8.354;2023-05-28T10:07:35;101133.00;;;26.40
16956;BMP180;8594;52.052;8.354;2023-05-28T10:10:02;101131.00;;;26.20
16956;BMP180;8594;52.052;8.354;2023-05-28T10:12:31;101139.00;;;26.30
16956;BMP180;8594;52.052;8.354;2023-05-28T10:14:58;101146.00;;;25.90
16956;BMP180;8594;52.052;8.354;2023-05-28T10:17:26;101130.00;;;25.80
16956;BMP180;8594;52.052;8.354;2023-05-28T10:19:53;101138.00;;;26.20
16956;BMP180;8594;52.052;8.354;2023-05-28T10:22:20;101137.00;;;25.90
16956;BMP180;8594;52.052;8.354;2023-05-28T10:24:47;101141.00;;;26.20
16956;BMP180;8594;52.052;8.354;2023-05-28T10:27:16;101135.00;;;27.30
16956;BMP180;8594;52.052;8.354;2023-05-28T10:29:46;101130.00;;;27.40
16956;BMP180;8594;52.052;8.354;2023-05-28T10:32:14;101132.00;;;27.90
16956;BMP180;8594;52.052;8.354;2023-05-28T10:34:41;101139.00;;;28.00
16956;BMP180;8594;52.052;8.354;2023-05-28T10:37:10;101147.00;;;27.70
16956;BMP180;8594;52.052;8.354;2023-05-28T10:39:39;101134.00;;;27.20
16956;BMP180;8594;52.052;8.354;2023-05-28T10:42:07;101135.00;;;27.30
16956;BMP180;8594;52.052;8.354;2023-05-28T10:44:52;101132.00;;;27.00
16956;BMP180;8594;52.052;8.354;2023-05-28T10:47:32;101131.00;;;27.40
16956;BMP180;8594;52.052;8.354;2023-05-28T10:50:00;101132.00;;;28.20
16956;BMP180;8594;52.052;8.354;2023-05-28T10:52:27;101132.00;;;28.00
16956;BMP180;8594;52.052;8.354;2023-05-28T10:54:57;101142.00;;;28.30
16956;BMP180;8594;52.052;8.354;2023-05-28T10:57:23;101142.00;;;27.70
16956;BMP180;8594;52.052;8.354;2023-05-28T10:59:58;101139.00;;;27.30
16956;BMP180;8594;52.052;8.354;2023-05-28T11:02:27;101130.00;;;28.70
16956;BMP180;8594;52.052;8.354;2023-05-28T11:04:55;101145.00;;;27.70
16956;BMP180;8594;52.052;8.354;2023-05-28T11:07:33;101136.00;;;27.50
16956;BMP180;8594;52.052;8.354;2023-05-28T11:10:02;101146.00;;;27.30
16956;BMP180;8594;52.052;8.354;2023-05-28T11:12:32;101134.00;;;27.40
16956;BMP180;8594;52.052;8.354;2023-05-28T11:15:00;101132.00;;;27.80
16956;BMP180;8594;52.052;8.354;2023-05-28T11:17:27;101139.00;;;26.80
16956;BMP180;8594;52.052;8.354;2023-05-28T11:19:54;101136.00;;;27.30
16956;BMP180;8594;52.052;8.354;2023-05-28T11:22:21;101143.00;;;28.10
16956;BMP180;8594;52.052;8.354;2023-05-28T11:24:54;101138.00;;;28.00
16956;BMP180;8594;52.052;8.354;2023-05-28T11:27:25;101128.00;;;28.30
16956;BMP180;8594;52.052;8.354;2023-05-28T11:29:54;101132.00;;;28.40
16956;BMP180;8594;52.052;8.354;2023-05-28T11:32:24;101131.00;;;27.40
16956;BMP180;8594;52.052;8.354;2023-05-28T11:34:54;101137.00;;;28.50
16956;BMP180;8594;52.052;8.354;2023-05-28T11:37:26;101144.00;;;27.70
16956;BMP180;8594;52.052;8.354;2023-05-28T11:39:56;101145.00;;;28.70
16956;BMP180;8594;52.052;8.354;2023-05-28T11:42:25;101139.00;;;28.00
16956;BMP180;8594;52.052;8.354;2023-05-28T11:44:52;101139.00;;;27.90
16956;BMP180;8594;52.052;8.354;2023-05-28T11:47:20;101142.00;;;27.90
16956;BMP180;8594;52.052;8.354;2023-05-28T11:49:49;101139.00;;;28.00
16956;BMP180;8594;52.052;8.354;2023-05-28T11:52:18;101141.00;;;28.50
16956;BMP180;8594;52.052;8.354;2023-05-28T11:54:48;101133.00;;;27.60
16956;BMP180;8594;52.052;8.354;2023-05-28T11:57:21;101134.00;;;27.90
16956;BMP180;8594;52.052;8.354;2023-05-28T11:59:59;101127.00;;;28.60
16956;BMP180;8594;52.052;8.354;2023-05-28T12:02:26;101128.00;;;28.90
16956;BMP180;8594;52.052;8.354;2023-05-28T12:04:56;101131.00;;;29.20
16956;BMP180;8594;52.052;8.354;2023-05-28T12:07:28;101128.00;;;28.60
16956;BMP180;8594;52.052;8.354;2023-05-28T12:10:04;101135.00;;;28.30
16956;BMP180;8594;52.052;8.354;2023-05-28T12:12:31;101121.00;;;27.60
16956;BMP180;8594;52.052;8.354;2023-05-28T12:15:01;101122.00;;;28.00
16956;BMP180;8594;52.052;8.354;2023-05-28T12:17:34;101117.00;;;27.20
16956;BMP180;8594;52.052;8.354;2023-05-28T12:20:07;101116.00;;;27.70
16956;BMP180;8594;52.052;8.354;2023-05-28T12:23:01;101115.00;;;28.10
16956;BMP180;8594;52.052;8.354;2023-05-28T12:25:28;101115.00;;;28.60
16956;BMP180;8594;52.052;8.354;2023-05-28T12:27:55;101119.00;;;27.90
16956;BMP180;8594;52.052;8.354;2023-05-28T12:30:22;101116.00;;;27.80
16956;BMP180;8594;52.052;8.354;2023-05-28T12:32:49;101116.00;;;27.70
16956;BMP180;8594;52.052;8.354;2023-05-28T12:35:17;101119.00;;;28.30
16956;BMP180;8594;52.052;8.354;2023-05-28T12:37:44;101124.00;;;28.50
16956;BMP180;8594;52.052;8.354;2023-05-28T12:40:11;101124.00;;;28.10
16956;BMP180;8594;52.052;8.354;2023-05-28T12:42:38;101119.00;;;28.20
16956;BMP180;8594;52.052;8.354;2023-05-28T12:45:06;101119.00;;;27.30
16956;BMP180;8594;52.052;8.354;2023-05-28T12:47:33;101112.00;;;27.70
16956;BMP180;8594;52.052;8.354;2023-05-28T12:50:00;101125.00;;;27.60
16956;BMP180;8594;52.052;8.354;2023-05-28T12:52:28;101122.00;;;27.10
16956;BMP180;8594;52.052;8.354;2023-05-28T12:54:57;101131.00;;;27.20
16956;BMP180;8594;52.052;8.354;2023-05-28T12:57:24;101122.00;;;27.30
16956;BMP180;8594;52.052;8.354;2023-05-28T12:59:52;101109.00;;;27.50
16956;BMP180;8594;52.052;8.354;2023-05-28T13:02:18;101113.00;;;27.50
16956;BMP180;8594;52.052;8.354;2023-05-28T13:04:45;101106.00;;;27.50
16956;BMP180;8594;52.052;8.354;2023-05-28T13:07:12;101107.00;;;28.10
16956;BMP180;8594;52.052;8.354;2023-05-28T13:09:41;101111.00;;;28.20
16956;BMP180;8594;52.052;8.354;2023-05-28T13:12:07;101106.00;;;27.70
16956;BMP180;8594;52.052;8.354;2023-05-28T13:14:34;101109.00;;;27.80
16956;BMP180;8594;52.052;8.354;2023-05-28T13:17:01;101099.00;;;27.90
16956;BMP180;8594;52.052;8.354;2023-05-28T13:19:29;101103.00;;;28.20
16956;BMP180;8594;52.052;8.354;2023-05-28T13:21:56;101090.00;;;28.60
16956;BMP180;8594;52.052;8.354;2023-05-28T13:24:25;101085.00;;;28.90
16956;BMP180;8594;52.052;8.354;2023-05-28T13:26:53;101089.00;;;28.40
16956;BMP180;8594;52.052;8.354;2023-05-28T13:29:20;101089.00;;;27.80
16956;BMP180;8594;52.052;8.354;2023-05-28T13:31:47;101091.00;;;28.00
16956;BMP180;8594;52.052;8.354;2023-05-28T13:34:13;101083.00;;;28.70
16956;BMP180;8594;52.052;8.354;2023-05-28T13:36:40;101077.00;;;27.60
16956;BMP180;8594;52.052;8.354;2023-05-28T13:39:07;101080.00;;;28.10
16956;BMP180;8594;52.052;8.354;2023-05-28T13:41:35;101087.00;;;28.10
16956;BMP180;8594;52.052;8.354;2023-05-28T13:44:03;101074.00;;;28.10
16956;BMP180;8594;52.052;8.354;2023-05-28T13:46:30;101070.00;;;28.30
16956;BMP180;8594;52.052;8.354;2023-05-28T13:48:56;101077.00;;;28.40
16956;BMP180;8594;52.052;8.354;2023-05-28T13:51:24;101073.00;;;28.10
16956;BMP180;8594;52.052;8.354;2023-05-28T13:53:51;101074.00;;;27.70
16956;BMP180;8594;52.052;8.354;2023-05-28T13:56:18;101066.00;;;27.40
16956;BMP180;8594;52.052;8.354;2023-05-28T13:58:45;101072.00;;;27.10
16956;BMP180;8594;52.052;8.354;2023-05-28T14:01:13;101069.00;;;27.20
16956;BMP180;8594;52.052;8.354;2023-05-28T14:03:39;101062.00;;;27.40
16956;BMP180;8594;52.052;8.354;2023-05-28T14:06:10;101055.00;;;27.80
16956;BMP180;8594;52.052;8.354;2023-05-28T14:08:38;101065.00;;;27.40
16956;BMP180;8594;52.052;8.354;2023-05-28T14:11:04;101065.00;;;27.70
16956;BMP180;8594;52.052;8.354;2023-05-28T14:13:31;101058.00;;;27.20